Time;durP1;ratioP1;P1;durP2;ratioP2;P2;SDS_P1;SDS_P2;PMS_P1;PMS_P2;Temp;Humidity;BMP_temperature;BMP_pressure;BME280_temperature;BME280_humidity;BME280_pressure;Samples;Min_cycle;Max_cycle;Signal;HPM_P1;HPM_P2
2020/04/12 00:01:42;;;;;;;5.9;5;;;;;;;10.38;63.67578;942.6746;;;;
2020/04/12 00:04:05;;;;;;;7.1;5.4;;;;;;;10.29;64.17773;942.6516;;;;
2020/04/12 00:06:30;;;;;;;5.5;4.8;;;;;;;10.18;64.62793;942.6125;;;;
2020/04/12 00:08:55;;;;;;;6.7;5.1;;;;;;;10.13;64.82617;942.6411;;;;
2020/04/12 00:11:20;;;;;;;6.9;5.2;;;;;;;10.09;64.9668;942.6409;;;;
2020/04/12 00:13:45;;;;;;;6.4;5.1;;;;;;;9.83;65.94336;942.585;;;;
2020/04/12 00:16:11;;;;;;;6.6;4.9;;;;;;;9.9;65.61035;942.5935;;;;
2020/04/12 00:18:36;;;;;;;7.6;5.1;;;;;;;9.85;65.79883;942.5656;;;;
2020/04/12 00:21:01;;;;;;;7.7;5;;;;;;;9.72;66.23438;942.5556;;;;
2020/04/12 00:23:27;;;;;;;6.1;4.9;;;;;;;9.57;66.84863;942.4943;;;;
2020/04/12 00:25:52;;;;;;;5.1;4.6;;;;;;;9.69;66.46777;942.4889;;;;
2020/04/12 00:28:18;;;;;;;6.2;4.9;;;;;;;9.71;66.46094;942.4878;;;;
2020/04/12 00:30:44;;;;;;;5.7;5.1;;;;;;;9.71;66.53906;942.459;;;;
2020/04/12 00:33:08;;;;;;;5.9;5.2;;;;;;;9.7;66.45898;942.4297;;;;
2020/04/12 00:35:33;;;;;;;5.3;4.8;;;;;;;9.72;66.40527;942.4419;;;;
2020/04/12 00:37:58;;;;;;;6.1;5.4;;;;;;;9.41;67.97461;942.4053;;;;
2020/04/12 00:40:23;;;;;;;6.4;5.5;;;;;;;9.39;68.09766;942.3434;;;;
2020/04/12 00:42:49;;;;;;;6.1;5.2;;;;;;;9.33;68.36035;942.3279;;;;
2020/04/12 00:45:14;;;;;;;5.6;4.7;;;;;;;9.15;69.12891;942.2714;;;;
2020/04/12 00:47:39;;;;;;;5.6;5;;;;;;;9.21;68.83105;942.3406;;;;
2020/04/12 00:50:04;;;;;;;6.4;5.4;;;;;;;9.34;68.28223;942.27;;;;
2020/04/12 00:52:29;;;;;;;7.1;5.5;;;;;;;9.24;69.00488;942.1987;;;;
2020/04/12 00:54:55;;;;;;;7;5.9;;;;;;;9.33;68.50879;942.2277;;;;
2020/04/12 00:57:20;;;;;;;7.3;6.1;;;;;;;9.3;68.51465;942.2676;;;;
2020/04/12 00:59:47;;;;;;;8;5.6;;;;;;;9.29;68.47852;942.2332;;;;
2020/04/12 01:02:12;;;;;;;8.4;5.6;;;;;;;9.23;68.37891;942.2233;;;;
2020/04/12 01:04:40;;;;;;;6.9;5.9;;;;;;;9.32;68.03906;942.3102;;;;
2020/04/12 01:07:05;;;;;;;7.4;6.1;;;;;;;9.06;68.98926;942.2862;;;;
2020/04/12 01:09:31;;;;;;;8;5.8;;;;;;;9.11;68.76855;942.3086;;;;
2020/04/12 01:11:56;;;;;;;7.4;6.2;;;;;;;9.08;68.87793;942.3161;;;;
2020/04/12 01:14:21;;;;;;;7;6.1;;;;;;;9.05;68.94238;942.2875;;;;
2020/04/12 01:16:47;;;;;;;7.1;6.1;;;;;;;9.1;68.73438;942.2656;;;;
2020/04/12 01:19:12;;;;;;;8.4;5.9;;;;;;;9.1;68.99609;942.2553;;;;
2020/04/12 01:21:37;;;;;;;7.3;6.1;;;;;;;9.04;69.47559;942.2595;;;;
2020/04/12 01:24:02;;;;;;;7.4;5.9;;;;;;;9.07;69.50098;942.2736;;;;
2020/04/12 01:26:27;;;;;;;7.3;6.1;;;;;;;9.08;69.38965;942.2214;;;;
2020/04/12 01:28:53;;;;;;;7.3;6;;;;;;;9.14;69.14844;942.2425;;;;
2020/04/12 01:31:30;;;;;;;7.2;6;;;;;;;9.25;68.67773;942.188;;;;
2020/04/12 01:33:46;;;;;;;7.7;5.6;;;;;;;9.22;68.62793;942.2772;;;;
2020/04/12 01:36:10;;;;;;;6.8;5.5;;;;;;;9.29;68.45605;942.3008;;;;
2020/04/12 01:38:36;;;;;;;6.5;5.3;;;;;;;9.28;68.34082;942.2512;;;;
2020/04/12 01:41:01;;;;;;;6.2;5.6;;;;;;;9.24;68.38086;942.2045;;;;
2020/04/12 01:43:27;;;;;;;7.1;5.5;;;;;;;9.25;68.37012;942.2253;;;;
2020/04/12 01:45:52;;;;;;;7;5.5;;;;;;;9.11;68.83691;942.3024;;;;
2020/04/12 01:48:19;;;;;;;7.2;5.4;;;;;;;9.14;68.61328;942.3013;;;;
2020/04/12 01:50:44;;;;;;;9.7;5.9;;;;;;;8.9;69.72461;942.3016;;;;
2020/04/12 01:53:10;;;;;;;6.7;6;;;;;;;8.86;69.87695;942.3394;;;;
2020/04/12 01:55:35;;;;;;;8.3;6.5;;;;;;;8.82;70.07715;942.264;;;;
2020/04/12 01:58:01;;;;;;;7.8;6.1;;;;;;;8.86;69.75293;942.1981;;;;
2020/04/12 02:00:26;;;;;;;7.6;6.4;;;;;;;8.95;69.3125;942.2866;;;;
2020/04/12 02:02:52;;;;;;;7.2;5.9;;;;;;;8.98;69.19238;942.2493;;;;
2020/04/12 02:05:17;;;;;;;6.9;6.2;;;;;;;8.93;69.50195;942.2544;;;;
2020/04/12 02:07:44;;;;;;;6.7;5.9;;;;;;;8.96;69.33594;942.2551;;;;
2020/04/12 02:10:09;;;;;;;7.2;6.1;;;;;;;8.94;69.4248;942.2555;;;;
2020/04/12 02:12:35;;;;;;;7.3;6.5;;;;;;;8.61;71.07617;942.2292;;;;
2020/04/12 02:15:00;;;;;;;8.2;6.4;;;;;;;8.71;70.7959;942.1967;;;;
2020/04/12 02:17:27;;;;;;;10.1;7.4;;;;;;;8.64;71.05859;942.0864;;;;
2020/04/12 02:19:52;;;;;;;9.3;7.2;;;;;;;8.66;70.90332;942.1713;;;;
2020/04/12 02:22:18;;;;;;;8.3;6.9;;;;;;;8.74;70.50586;942.1332;;;;
2020/04/12 02:24:43;;;;;;;10.1;7.3;;;;;;;8.82;70.09863;942.0941;;;;
2020/04/12 02:27:08;;;;;;;10.6;7.5;;;;;;;8.89;69.66504;942.032;;;;
2020/04/12 02:29:33;;;;;;;8.6;7.2;;;;;;;8.91;69.60254;942.0159;;;;
2020/04/12 02:31:58;;;;;;;10.2;7.2;;;;;;;8.56;70.85254;942.0527;;;;
2020/04/12 02:34:23;;;;;;;9.2;6.4;;;;;;;8.39;71.6084;942.0714;;;;
2020/04/12 02:36:48;;;;;;;7.7;6.2;;;;;;;8.31;72.09473;942.0471;;;;
2020/04/12 02:39:14;;;;;;;9;6.2;;;;;;;8.39;72.1543;942.0159;;;;
2020/04/12 03:52:02;;;;;;;7.8;6.1;;;;;;;8.82;71.73633;941.7486;;;;
2020/04/12 03:54:27;;;;;;;10.7;6.7;;;;;;;8.71;72.35449;941.7833;;;;
2020/04/12 03:56:52;;;;;;;7;6.3;;;;;;;8.77;72.28418;941.8265;;;;
2020/04/12 03:59:17;;;;;;;7.6;6.8;;;;;;;8.75;72.28125;941.7928;;;;
2020/04/12 04:02:30;;;;;;;26.4;17.3;;;;;;;8.68;72.82617;941.8016;;;;
2020/04/12 04:04:55;;;;;;;16.3;11.6;;;;;;;8.79;72.46094;941.8105;;;;
2020/04/12 04:07:20;;;;;;;10.4;7.4;;;;;;;8.84;72.05762;941.7276;;;;
2020/04/12 04:09:45;;;;;;;8.8;7.2;;;;;;;9.04;71.33008;941.7059;;;;
2020/04/12 04:12:10;;;;;;;8.7;7.2;;;;;;;9.15;70.9834;941.6414;;;;
2020/04/12 04:14:35;;;;;;;8;6.8;;;;;;;9.19;70.5918;941.7177;;;;
2020/04/12 04:17:00;;;;;;;8.1;6.6;;;;;;;9.11;70.99902;941.7255;;;;
2020/04/12 04:19:26;;;;;;;8.9;6.6;;;;;;;9.1;70.82715;941.7285;;;;
2020/04/12 04:21:51;;;;;;;8.9;6.4;;;;;;;9.04;70.96484;941.655;;;;
2020/04/12 04:24:16;;;;;;;7.3;6.3;;;;;;;9.06;71.13965;941.657;;;;
2020/04/12 04:26:41;;;;;;;8.3;6.7;;;;;;;9.04;71.44238;941.6264;;;;
2020/04/12 04:29:06;;;;;;;7.5;6.5;;;;;;;9;71.4834;941.7175;;;;
2020/04/12 04:31:31;;;;;;;7.2;5.9;;;;;;;8.99;71.48145;941.6331;;;;
2020/04/12 04:33:57;;;;;;;6.5;5.5;;;;;;;9.13;71.07227;941.4868;;;;
2020/04/12 04:36:22;;;;;;;9.3;6.6;;;;;;;9.11;71.36426;941.5684;;;;
2020/04/12 04:38:47;;;;;;;7.9;6.2;;;;;;;9.05;71.58203;941.548;;;;
2020/04/12 04:41:12;;;;;;;7.5;6.2;;;;;;;9.11;71.19434;941.551;;;;
2020/04/12 04:43:37;;;;;;;8.7;6.2;;;;;;;9.06;71.58301;941.5594;;;;
2020/04/12 04:46:02;;;;;;;10.7;7.1;;;;;;;9.1;71.59082;941.5435;;;;
2020/04/12 04:48:27;;;;;;;9;6.6;;;;;;;9.2;71.26465;941.5836;;;;
2020/04/12 04:50:52;;;;;;;7.5;6.4;;;;;;;9.3;70.99805;941.5151;;;;
2020/04/12 04:53:18;;;;;;;8.7;6.1;;;;;;;9.36;70.69922;941.6044;;;;
2020/04/12 04:55:43;;;;;;;8.9;6.7;;;;;;;9.43;70.52832;941.5441;;;;
2020/04/12 04:58:08;;;;;;;10.5;6.5;;;;;;;9.36;70.5166;941.5614;;;;
2020/04/12 05:02:58;;;;;;;8.2;6.5;;;;;;;9.36;70.67676;941.6069;;;;
2020/04/12 05:05:24;;;;;;;7.1;6.4;;;;;;;9.37;70.79199;941.6063;;;;
2020/04/12 05:07:49;;;;;;;7.6;6.1;;;;;;;9.63;69.94629;941.4997;;;;
2020/04/12 05:10:14;;;;;;;7.6;6.4;;;;;;;9.77;69.44336;941.5411;;;;
2020/04/12 05:12:39;;;;;;;6.8;5.8;;;;;;;9.74;69.84961;941.543;;;;
2020/04/12 05:15:04;;;;;;;7.9;6;;;;;;;9.98;68.83984;941.5481;;;;
2020/04/12 05:17:31;;;;;;;8.4;6;;;;;;;9.98;68.89551;941.5273;;;;
2020/04/12 05:19:56;;;;;;;8.3;5.5;;;;;;;9.99;68.91992;941.459;;;;
2020/04/12 05:22:22;;;;;;;6.4;5.8;;;;;;;10.12;68.74707;941.4687;;;;
2020/04/12 05:24:47;;;;;;;9.1;6.2;;;;;;;10.29;67.95313;941.4839;;;;
2020/04/12 05:27:13;;;;;;;8.4;6.6;;;;;;;10.27;67.79102;941.5019;;;;
2020/04/12 05:29:38;;;;;;;11.4;8.2;;;;;;;10.19;68.02832;941.5145;;;;
2020/04/12 05:32:05;;;;;;;13.3;8.3;;;;;;;10.39;67.27246;941.456;;;;
2020/04/12 05:34:30;;;;;;;9.9;7;;;;;;;10.53;66.56445;941.495;;;;
2020/04/12 05:36:56;;;;;;;11.9;7;;;;;;;10.73;65.68066;941.4846;;;;
2020/04/12 05:39:21;;;;;;;9.6;6.8;;;;;;;10.84;65.53711;941.457;;;;
2020/04/12 05:41:48;;;;;;;8.7;6.8;;;;;;;11.12;65.00781;941.4083;;;;
2020/04/12 05:44:13;;;;;;;12.7;7.9;;;;;;;11.58;63.49805;941.4659;;;;
2020/04/12 05:46:38;;;;;;;8.8;6.4;;;;;;;11.59;63.68359;941.454;;;;
2020/04/12 05:49:04;;;;;;;7.3;6.3;;;;;;;11.88;62.31641;941.4291;;;;
2020/04/12 05:51:29;;;;;;;8.6;6.7;;;;;;;11.95;62.68262;941.4592;;;;
2020/04/12 05:53:55;;;;;;;10;6.2;;;;;;;12.46;60.81641;941.414;;;;
2020/04/12 05:56:20;;;;;;;7.3;5.7;;;;;;;12.47;60.26758;941.3893;;;;
2020/04/12 05:58:45;;;;;;;7.3;5.9;;;;;;;12.26;60.99609;941.3946;;;;
2020/04/12 06:01:11;;;;;;;7.1;5.4;;;;;;;12.13;61.28516;941.3764;;;;
2020/04/12 06:03:40;;;;;;;6.7;5.6;;;;;;;12.1;61.45508;941.3994;;;;
2020/04/12 06:06:03;;;;;;;7.9;5.4;;;;;;;12.21;60.63379;941.3372;;;;
2020/04/12 06:08:30;;;;;;;5.6;5;;;;;;;12.31;60.89941;941.415;;;;
2020/04/12 06:10:55;;;;;;;8;4.9;;;;;;;12.55;60.62305;941.397;;;;
2020/04/12 06:13:17;;;;;;;7;4.9;;;;;;;12.96;58.84375;941.3376;;;;
2020/04/12 06:15:43;;;;;;;5.5;4.6;;;;;;;14.11;54.80957;941.3231;;;;
2020/04/12 06:18:08;;;;;;;8.8;6.1;;;;;;;14.68;52.54004;941.3377;;;;
2020/04/12 06:20:34;;;;;;;9;6.6;;;;;;;14.55;51.6377;941.2358;;;;
2020/04/12 06:23:00;;;;;;;8;6.4;;;;;;;15.57;49.55078;941.3458;;;;
2020/04/12 06:25:26;;;;;;;6.7;5.3;;;;;;;16.1;47.70313;941.3093;;;;
2020/04/12 06:27:51;;;;;;;7.1;4.8;;;;;;;16.51;46.07031;941.2375;;;;
2020/04/12 06:30:17;;;;;;;8;4.3;;;;;;;17.05;45.50098;941.1885;;;;
2020/04/12 06:32:42;;;;;;;6;4.2;;;;;;;18.12;42.04492;941.1847;;;;
2020/04/12 06:35:08;;;;;;;9.3;4.9;;;;;;;19.51;39.60156;941.1866;;;;
2020/04/12 06:37:34;;;;;;;4.9;4;;;;;;;19.27;38.80078;941.1345;;;;
2020/04/12 06:39:59;;;;;;;8.6;4.4;;;;;;;17.94;41.66699;941.116;;;;
2020/04/12 06:42:25;;;;;;;13.6;4.5;;;;;;;17.51;42.86816;941.1603;;;;
2020/04/12 06:44:50;;;;;;;5.1;3.7;;;;;;;18.59;41.12305;941.1334;;;;
2020/04/12 06:47:17;;;;;;;5.7;4;;;;;;;19.05;39.22266;941.0545;;;;
2020/04/12 06:49:42;;;;;;;6.6;3.9;;;;;;;19.22;38.98242;941.0839;;;;
2020/04/12 06:52:07;;;;;;;4.9;4;;;;;;;18.75;40.58008;940.9869;;;;
2020/04/12 06:54:32;;;;;;;7.5;4.4;;;;;;;19.59;39.07324;941.0569;;;;
2020/04/12 06:56:58;;;;;;;5.7;4.1;;;;;;;18.75;40.77832;940.9698;;;;
2020/04/12 06:59:23;;;;;;;10.5;4.6;;;;;;;17.69;42.875;941.0056;;;;
2020/04/12 07:01:48;;;;;;;7.2;4.9;;;;;;;16.93;44.83887;940.9836;;;;
2020/04/12 07:04:13;;;;;;;6.2;4.7;;;;;;;16.68;45.7627;940.9858;;;;
2020/04/12 07:06:39;;;;;;;12;5.4;;;;;;;16.69;46.20508;940.9213;;;;
2020/04/12 07:09:05;;;;;;;10.1;4.2;;;;;;;17.77;42.98633;940.9256;;;;
2020/04/12 07:11:29;;;;;;;4.7;3.7;;;;;;;19.12;40.50977;940.8903;;;;
2020/04/12 07:13:55;;;;;;;5.2;4;;;;;;;19.59;38.07031;940.905;;;;
2020/04/12 07:16:20;;;;;;;4.1;3.6;;;;;;;18.55;40.55078;940.8856;;;;
2020/04/12 07:18:45;;;;;;;6.8;3.9;;;;;;;19.51;40.05664;940.8766;;;;
2020/04/12 07:21:12;;;;;;;4;3.4;;;;;;;19.81;39.46582;940.7859;;;;
2020/04/12 07:23:37;;;;;;;4.1;3.5;;;;;;;18.57;39.72656;940.7119;;;;
2020/04/12 07:26:03;;;;;;;5;3.7;;;;;;;17.85;42.5293;940.7636;;;;
2020/04/12 07:28:28;;;;;;;5.8;3.8;;;;;;;16.94;44.28418;940.709;;;;
2020/04/12 07:30:55;;;;;;;5;3.9;;;;;;;16.98;44.42773;940.6459;;;;
2020/04/12 07:33:20;;;;;;;5.1;3.8;;;;;;;17.14;45.24316;940.658;;;;
2020/04/12 07:35:46;;;;;;;6.9;4;;;;;;;16.89;43.93164;940.6115;;;;
2020/04/12 07:38:11;;;;;;;5;4.1;;;;;;;16.69;44.1084;940.598;;;;
2020/04/12 07:40:38;;;;;;;4.7;3.9;;;;;;;18.12;41.87012;940.6035;;;;
2020/04/12 07:43:03;;;;;;;7.5;3.8;;;;;;;18.17;39.78418;940.5792;;;;
2020/04/12 07:45:29;;;;;;;6.1;3.9;;;;;;;18.27;39.61914;940.5472;;;;
2020/04/12 07:47:54;;;;;;;6;3.6;;;;;;;18.99;39.31152;940.5081;;;;
2020/04/12 07:50:21;;;;;;;4.9;3.7;;;;;;;21.37;34.58398;940.5008;;;;
2020/04/12 07:52:46;;;;;;;6;3.6;;;;;;;23.31;31.67969;940.4171;;;;
2020/04/12 07:55:11;;;;;;;6;3.4;;;;;;;22.74;30.38281;940.3627;;;;
2020/04/12 07:57:36;;;;;;;4.2;3.2;;;;;;;22.41;31.05176;940.34;;;;
2020/04/12 08:00:01;;;;;;;3.7;3.2;;;;;;;22.3;31.10254;940.2569;;;;
2020/04/12 08:02:26;;;;;;;4.5;3.3;;;;;;;24.05;29.65918;940.2548;;;;
2020/04/12 08:04:51;;;;;;;5.6;3.5;;;;;;;24.08;28.89551;940.2096;;;;
2020/04/12 08:07:17;;;;;;;6.9;3.6;;;;;;;24.1;29.00391;940.2549;;;;
2020/04/12 08:09:43;;;;;;;4.6;3.1;;;;;;;23.52;29.54199;940.1785;;;;
2020/04/12 08:12:09;;;;;;;4.3;3.3;;;;;;;23.42;29.80566;940.1414;;;;
2020/04/12 08:14:49;;;;;;;4.3;3.2;;;;;;;23.31;30.39746;940.1497;;;;
2020/04/12 08:17:00;;;;;;;5.3;3.3;;;;;;;22.54;31.18945;940.0781;;;;
2020/04/12 08:19:26;;;;;;;5.8;3.4;;;;;;;21.5;31.69043;940.0865;;;;
2020/04/12 08:21:51;;;;;;;5.3;3.5;;;;;;;21.14;32.99902;940.0709;;;;
2020/04/12 08:24:17;;;;;;;7.3;4.1;;;;;;;20.99;33.74805;940.0246;;;;
2020/04/12 08:26:42;;;;;;;6.3;3.6;;;;;;;21.31;33.31543;939.9607;;;;
2020/04/12 08:29:07;;;;;;;4.9;3.3;;;;;;;22.37;31.4834;939.9796;;;;
2020/04/12 08:31:33;;;;;;;3.7;3.1;;;;;;;24.28;28.80273;939.9308;;;;
2020/04/12 08:33:57;;;;;;;3.6;2.9;;;;;;;26.78;26.58301;939.9164;;;;
2020/04/12 08:36:22;;;;;;;3.7;2.9;;;;;;;29.17;23.97363;939.9111;;;;
2020/04/12 08:38:47;;;;;;;3.4;2.7;;;;;;;30.31;23.56836;939.8812;;;;
2020/04/12 08:41:12;;;;;;;3.2;2.4;;;;;;;30.55;19.96191;939.8684;;;;
2020/04/12 08:43:37;;;;;;;3.1;2.5;;;;;;;32.12;19.13184;939.8862;;;;
2020/04/12 08:46:03;;;;;;;2.7;2.3;;;;;;;31.26;19.13086;939.7689;;;;
2020/04/12 08:48:28;;;;;;;3.2;2.5;;;;;;;31.51;19.8125;939.796;;;;
2020/04/12 08:50:54;;;;;;;3.9;2.5;;;;;;;31.5;19.0459;939.749;;;;
2020/04/12 08:53:19;;;;;;;3.7;2.4;;;;;;;31.26;21.20117;939.712;;;;
2020/04/12 08:55:44;;;;;;;3.5;2.4;;;;;;;31.92;20.84863;939.7183;;;;
2020/04/12 08:58:09;;;;;;;3.2;2.4;;;;;;;31.88;20.79883;939.6791;;;;
2020/04/12 09:00:34;;;;;;;3.9;2.4;;;;;;;31.76;20.64941;939.5945;;;;
2020/04/12 09:02:59;;;;;;;3.3;2.1;;;;;;;31.97;21.28223;939.5019;;;;
2020/04/12 09:05:24;;;;;;;3.4;2.3;;;;;;;31.64;20.7998;939.5739;;;;
2020/04/12 09:07:49;;;;;;;3.4;2.3;;;;;;;31.75;20.81738;939.4691;;;;
2020/04/12 09:10:14;;;;;;;3.8;2.3;;;;;;;31.63;19.46973;939.463;;;;
2020/04/12 09:12:39;;;;;;;4.2;2.4;;;;;;;30.06;21.4082;939.3055;;;;
2020/04/12 09:15:06;;;;;;;5.3;2.4;;;;;;;30.27;23.67383;939.3507;;;;
2020/04/12 09:17:31;;;;;;;3.5;2.3;;;;;;;31.46;19.53516;939.3613;;;;
2020/04/12 09:19:56;;;;;;;3.5;2.3;;;;;;;31.98;20.49219;939.31;;;;
2020/04/12 09:22:22;;;;;;;3.2;2.3;;;;;;;32.45;20.11719;939.2137;;;;
2020/04/12 09:24:47;;;;;;;4.2;2.3;;;;;;;33;19.06055;939.1813;;;;
2020/04/12 09:27:13;;;;;;;7.5;3.4;;;;;;;33.22;17.31543;939.15;;;;
2020/04/12 09:29:38;;;;;;;6.3;2.7;;;;;;;32.17;16.38867;939.1722;;;;
2020/04/12 09:32:03;;;;;;;7.4;3.4;;;;;;;31.69;18.73047;939.1408;;;;
2020/04/12 09:34:28;;;;;;;11.1;3.8;;;;;;;30.42;19.37012;939.0556;;;;
2020/04/12 09:36:53;;;;;;;4.3;2.4;;;;;;;30.11;19.35742;939.0167;;;;
2020/04/12 09:39:18;;;;;;;9.6;3.4;;;;;;;30.62;18.56641;938.9281;;;;
2020/04/12 09:41:43;;;;;;;8.3;3.4;;;;;;;30.86;18.36133;938.9095;;;;
2020/04/12 09:44:09;;;;;;;7.9;3.6;;;;;;;31.26;19.26367;938.9742;;;;
2020/04/12 09:46:34;;;;;;;4.3;2.2;;;;;;;31.81;17.54883;938.9907;;;;
2020/04/12 09:49:00;;;;;;;6;2.8;;;;;;;31.87;17.3125;938.9592;;;;
2020/04/12 09:51:25;;;;;;;5.5;2.2;;;;;;;32.3;16.5127;938.9871;;;;
2020/04/12 09:53:50;;;;;;;3.2;2.1;;;;;;;32.79;16.77051;938.9375;;;;
2020/04/12 09:56:15;;;;;;;3.9;2.1;;;;;;;32.39;17.71582;938.9258;;;;
2020/04/12 09:58:41;;;;;;;4.5;2.3;;;;;;;32.49;17.70801;938.9144;;;;
2020/04/12 10:01:07;;;;;;;3.4;2.2;;;;;;;31.71;18.71973;938.9207;;;;
2020/04/12 10:03:32;;;;;;;6.4;2.6;;;;;;;31.09;19.09961;938.8985;;;;
2020/04/12 10:05:58;;;;;;;4.8;2.5;;;;;;;29.69;20.49609;938.7955;;;;
2020/04/12 10:08:23;;;;;;;3.7;2.5;;;;;;;28.95;21.42676;938.8251;;;;
2020/04/12 10:10:50;;;;;;;6;2.5;;;;;;;27.73;23.81348;938.8116;;;;
2020/04/12 10:13:15;;;;;;;4.4;2.4;;;;;;;26.88;24.65723;938.8254;;;;
2020/04/12 10:15:42;;;;;;;5.5;2.6;;;;;;;26.13;25.64551;938.7903;;;;
2020/04/12 10:18:07;;;;;;;6.2;2.8;;;;;;;26.27;26.94336;938.7112;;;;
2020/04/12 10:20:34;;;;;;;4.4;2.5;;;;;;;27.25;24.02539;938.6984;;;;
2020/04/12 10:22:59;;;;;;;7;2.6;;;;;;;28.56;21.89551;938.7483;;;;
2020/04/12 10:25:26;;;;;;;4;2.9;;;;;;;28.51;21.38184;938.7022;;;;
2020/04/12 10:27:51;;;;;;;7.5;2.8;;;;;;;28.29;22.9873;938.6653;;;;
2020/04/12 10:30:18;;;;;;;3.9;2.7;;;;;;;27.5;24.2168;938.6278;;;;
2020/04/12 10:32:43;;;;;;;8.2;3.1;;;;;;;27.07;25.0957;938.5768;;;;
2020/04/12 10:35:10;;;;;;;5;3.3;;;;;;;26.18;25.53027;938.5396;;;;
2020/04/12 10:37:35;;;;;;;6.5;3.3;;;;;;;25.85;26.96484;938.4821;;;;
2020/04/12 10:40:02;;;;;;;5.6;3;;;;;;;26.49;26.7793;938.4628;;;;
2020/04/12 10:42:27;;;;;;;4;2.8;;;;;;;27.39;24.21094;938.4188;;;;
2020/04/12 10:44:54;;;;;;;4.4;2.6;;;;;;;27.86;24.22461;938.3533;;;;
2020/04/12 10:47:19;;;;;;;6.7;3.1;;;;;;;27.67;23.64453;938.2175;;;;
2020/04/12 10:49:46;;;;;;;5.5;2.8;;;;;;;26.69;24.63574;938.2296;;;;
2020/04/12 10:52:11;;;;;;;4.4;2.8;;;;;;;26.46;25.74805;938.2093;;;;
2020/04/12 10:54:38;;;;;;;4.8;2.8;;;;;;;27.05;24.92773;938.2047;;;;
2020/04/12 10:57:03;;;;;;;5.9;3;;;;;;;27.45;24.16699;938.2466;;;;
2020/04/12 10:59:30;;;;;;;4.4;2.7;;;;;;;26.81;24.35742;938.1685;;;;
2020/04/12 11:01:55;;;;;;;4.8;2.8;;;;;;;26.31;24.50781;938.1842;;;;
2020/04/12 11:04:21;;;;;;;5;2.8;;;;;;;25.62;24.86035;938.1691;;;;
2020/04/12 11:06:46;;;;;;;4.9;2.7;;;;;;;25.7;25.56152;938.0697;;;;
2020/04/12 11:09:14;;;;;;;5.8;2.6;;;;;;;26.6;24.52441;938.1188;;;;
2020/04/12 11:11:41;;;;;;;4.4;2.8;;;;;;;27.02;24.23828;938.0302;;;;
2020/04/12 11:14:06;;;;;;;4;2.7;;;;;;;27.51;24.04004;938.0438;;;;
2020/04/12 11:16:31;;;;;;;6.2;2.6;;;;;;;28.62;21.42285;937.9261;;;;
2020/04/12 11:18:56;;;;;;;5.6;2.7;;;;;;;28.19;22.93555;938.0019;;;;
2020/04/12 11:21:23;;;;;;;3.6;2.5;;;;;;;28.68;22.10352;938.0095;;;;
2020/04/12 11:23:48;;;;;;;8.6;2.4;;;;;;;29.37;23.12695;937.9242;;;;
2020/04/12 11:26:16;;;;;;;3.5;2.3;;;;;;;30.01;20.66504;937.9485;;;;
2020/04/12 11:28:41;;;;;;;5.1;2.4;;;;;;;29.63;21.2207;937.8627;;;;
2020/04/12 11:31:07;;;;;;;4.4;2.4;;;;;;;28.96;21.05762;937.8859;;;;
2020/04/12 11:33:32;;;;;;;6.8;2.9;;;;;;;28.47;21.67676;937.8168;;;;
2020/04/12 11:35:57;;;;;;;4.7;2.8;;;;;;;27.83;23.62891;937.7585;;;;
2020/04/12 11:38:23;;;;;;;6.3;2.4;;;;;;;27.76;23.10254;937.7372;;;;
2020/04/12 11:40:48;;;;;;;4.3;2.6;;;;;;;26.96;22.30371;937.6873;;;;
2020/04/12 11:43:13;;;;;;;4.3;2.5;;;;;;;26.66;23.81641;937.623;;;;
2020/04/12 11:45:41;;;;;;;5.4;2.8;;;;;;;26.89;24.44531;937.6119;;;;
2020/04/12 11:48:12;;;;;;;6.8;2.7;;;;;;;26.69;25.33398;937.5344;;;;
2020/04/12 11:50:31;;;;;;;5.7;2.8;;;;;;;27.86;23.66699;937.5331;;;;
2020/04/12 11:52:56;;;;;;;3.3;2.6;;;;;;;28.25;21.92773;937.4888;;;;
2020/04/12 11:55:21;;;;;;;3.6;2.6;;;;;;;28.3;21.1582;937.4938;;;;
2020/04/12 11:57:46;;;;;;;3.3;2.3;;;;;;;27.54;23.06836;937.4432;;;;
2020/04/12 12:00:13;;;;;;;3.8;2.4;;;;;;;27.15;22.91797;937.4387;;;;
2020/04/12 12:02:36;;;;;;;5.4;2.4;;;;;;;27.93;24.26465;937.4255;;;;
2020/04/12 12:05:02;;;;;;;5;2.6;;;;;;;28.22;21.55859;937.3337;;;;
2020/04/12 12:07:27;;;;;;;6.4;2.6;;;;;;;27.26;21.92676;937.2571;;;;
2020/04/12 12:09:52;;;;;;;5.1;2.3;;;;;;;27.06;22.49902;937.236;;;;
2020/04/12 12:12:17;;;;;;;4.1;2.5;;;;;;;25.88;23.68066;937.1701;;;;
2020/04/12 12:14:42;;;;;;;3;2.3;;;;;;;25.7;24.16797;937.1519;;;;
2020/04/12 12:17:07;;;;;;;5.4;2.5;;;;;;;27.72;22.47266;937.1278;;;;
2020/04/12 12:19:34;;;;;;;4.1;2.4;;;;;;;29.62;20.50391;937.0683;;;;
2020/04/12 12:21:59;;;;;;;3.7;2.4;;;;;;;30.63;19.02051;937.079;;;;
2020/04/12 12:24:26;;;;;;;3.7;2.2;;;;;;;31.92;17.22949;937.0272;;;;
2020/04/12 12:26:51;;;;;;;3.2;2.1;;;;;;;32.19;16.65234;936.9888;;;;
2020/04/12 12:29:16;;;;;;;3.8;2.2;;;;;;;31.93;16.85938;936.9338;;;;
2020/04/12 12:31:42;;;;;;;3.6;2.1;;;;;;;30.96;17.54004;936.9225;;;;
2020/04/12 12:34:07;;;;;;;3.4;2.1;;;;;;;29.31;20.22852;936.882;;;;
2020/04/12 12:36:32;;;;;;;4.1;2.1;;;;;;;28.94;20.37891;936.88;;;;
2020/04/12 12:38:57;;;;;;;3.7;2.1;;;;;;;28.54;22.71484;936.7551;;;;
2020/04/12 12:41:22;;;;;;;3.5;2.4;;;;;;;28.88;17.28125;936.7917;;;;
2020/04/12 12:43:47;;;;;;;3.6;2.2;;;;;;;28.59;19.51855;936.806;;;;
2020/04/12 12:46:14;;;;;;;4.4;2.1;;;;;;;29.19;19.02051;936.7838;;;;
2020/04/12 12:48:39;;;;;;;2.5;2.1;;;;;;;30.44;17.12598;936.7491;;;;
2020/04/12 12:51:04;;;;;;;5.1;2.2;;;;;;;30.53;16.86719;936.7186;;;;
2020/04/12 12:53:31;;;;;;;3.3;2.2;;;;;;;31.17;17.17773;936.6808;;;;
2020/04/12 12:55:56;;;;;;;3.5;2.1;;;;;;;31.41;16.52832;936.6197;;;;
2020/04/12 12:58:22;;;;;;;4.1;1.9;;;;;;;32.02;17.42578;936.5103;;;;
2020/04/12 13:00:47;;;;;;;4.8;2.2;;;;;;;32.13;16.44727;936.5123;;;;
2020/04/12 13:03:14;;;;;;;3.3;2.2;;;;;;;31.01;18.27148;936.5179;;;;
2020/04/12 13:05:39;;;;;;;5.3;2.3;;;;;;;30.11;18.72461;936.5314;;;;
2020/04/12 13:08:06;;;;;;;6;2.1;;;;;;;30.54;18.2168;936.4944;;;;
2020/04/12 13:10:31;;;;;;;3.6;2;;;;;;;30.12;18.25977;936.4699;;;;
2020/04/12 13:12:58;;;;;;;3.6;2.3;;;;;;;28.62;20.28125;936.5019;;;;
2020/04/12 13:15:23;;;;;;;4.1;2.2;;;;;;;28.23;20.5127;936.3856;;;;
2020/04/12 13:17:50;;;;;;;3;2.1;;;;;;;27.87;20.80566;936.3899;;;;
2020/04/12 13:20:15;;;;;;;5.4;2.3;;;;;;;26.28;22.43555;936.3878;;;;
2020/04/12 13:22:40;;;;;;;4.2;2.3;;;;;;;26.13;22.66504;936.3808;;;;
2020/04/12 13:25:05;;;;;;;4.8;2.4;;;;;;;26.66;22.7627;936.3031;;;;
2020/04/12 13:27:32;;;;;;;6.1;2.4;;;;;;;26.3;21.56055;936.2946;;;;
2020/04/12 13:29:58;;;;;;;3.9;2.3;;;;;;;26.01;22.99023;936.272;;;;
2020/04/12 13:32:23;;;;;;;4.7;2.4;;;;;;;25.76;23.05957;936.1649;;;;
2020/04/12 13:34:48;;;;;;;6.4;2.4;;;;;;;25.38;24.18555;936.1873;;;;
2020/04/12 13:37:13;;;;;;;3;2.5;;;;;;;25.33;23.00195;936.1846;;;;
2020/04/12 13:39:40;;;;;;;4.8;2.4;;;;;;;24.91;25.00879;936.1914;;;;
2020/04/12 13:42:04;;;;;;;5.2;2.7;;;;;;;24.4;25.28809;936.0748;;;;
2020/04/12 13:44:31;;;;;;;7.7;2.9;;;;;;;24.1;26.57813;936.103;;;;
2020/04/12 13:46:56;;;;;;;4.5;2.4;;;;;;;24.01;26.52441;936.0229;;;;
2020/04/12 13:49:25;;;;;;;5.2;3;;;;;;;23.99;25.9707;935.963;;;;
2020/04/12 13:51:50;;;;;;;7.2;2.6;;;;;;;23.63;25.79688;935.9125;;;;
2020/04/12 13:54:15;;;;;;;6.3;2.8;;;;;;;23.81;25.08984;935.913;;;;
2020/04/12 13:56:41;;;;;;;5;2.5;;;;;;;24.27;25.02148;935.9162;;;;
2020/04/12 13:59:07;;;;;;;4.3;2.5;;;;;;;24.67;26.48145;935.8477;;;;
2020/04/12 14:01:32;;;;;;;9.7;2.6;;;;;;;24.59;27.01953;935.7981;;;;
2020/04/12 14:03:57;;;;;;;3.1;2.5;;;;;;;24.2;26.81934;935.7737;;;;
2020/04/12 14:06:22;;;;;;;4.3;2.5;;;;;;;24.26;25.50293;935.7678;;;;
2020/04/12 14:08:48;;;;;;;6.4;2.5;;;;;;;24.14;26.83887;935.7317;;;;
2020/04/12 14:11:14;;;;;;;3.3;2.6;;;;;;;23.88;26.42285;935.7184;;;;
2020/04/12 14:13:39;;;;;;;5;2.6;;;;;;;23.52;26.82617;935.7248;;;;
2020/04/12 14:16:04;;;;;;;4.4;2.6;;;;;;;23.56;27.52148;935.663;;;;
2020/04/12 14:18:30;;;;;;;4.9;2.5;;;;;;;23.89;26.78906;935.6577;;;;
2020/04/12 14:21:05;;;;;;;5.4;2.8;;;;;;;24.21;25.95996;935.64;;;;
2020/04/12 14:23:25;;;;;;;4.2;2.5;;;;;;;24.23;24.79492;935.5831;;;;
2020/04/12 14:25:50;;;;;;;3.1;2.5;;;;;;;23.85;26.39844;935.5516;;;;
2020/04/12 14:28:16;;;;;;;4.5;2.7;;;;;;;23.49;27.07031;935.5425;;;;
2020/04/12 14:30:41;;;;;;;4.3;2.6;;;;;;;23.11;28.30469;935.5076;;;;
2020/04/12 14:33:07;;;;;;;5.3;2.6;;;;;;;23.23;29.09961;935.5536;;;;
2020/04/12 14:35:32;;;;;;;3.2;2.5;;;;;;;23.48;27.30469;935.4949;;;;
2020/04/12 14:37:59;;;;;;;4.8;2.6;;;;;;;23.4;27.0293;935.4263;;;;
2020/04/12 14:40:24;;;;;;;5.5;2.7;;;;;;;23.42;27.74805;935.4933;;;;
2020/04/12 14:42:49;;;;;;;4;2.4;;;;;;;23.61;26.01855;935.4048;;;;
2020/04/12 14:45:14;;;;;;;2.7;2.4;;;;;;;23.76;27.29883;935.3389;;;;
2020/04/12 14:47:39;;;;;;;3.4;2.7;;;;;;;23.71;25.6709;935.2683;;;;
2020/04/12 14:50:04;;;;;;;6.4;2.8;;;;;;;23.56;25.62793;935.2974;;;;
2020/04/12 14:52:30;;;;;;;4;2.7;;;;;;;23.43;25.05566;935.2366;;;;
2020/04/12 14:54:55;;;;;;;3.4;2.7;;;;;;;23.4;26.41797;935.2252;;;;
2020/04/12 14:57:20;;;;;;;3.6;2.6;;;;;;;23.3;27.66992;935.233;;;;
2020/04/12 14:59:46;;;;;;;5;2.7;;;;;;;23.19;25.73633;935.1547;;;;
2020/04/12 15:02:11;;;;;;;4.7;2.8;;;;;;;23.12;25.68457;935.1644;;;;
2020/04/12 15:04:36;;;;;;;3.6;2.8;;;;;;;23.01;26.20703;935.1965;;;;
2020/04/12 15:07:01;;;;;;;6.4;2.7;;;;;;;22.72;28.12695;935.1822;;;;
2020/04/12 15:09:27;;;;;;;6.2;2.8;;;;;;;22.56;28.45703;935.1528;;;;
2020/04/12 15:11:52;;;;;;;5.9;2.5;;;;;;;22.69;29.19336;935.1805;;;;
2020/04/12 15:14:17;;;;;;;3.6;2.8;;;;;;;22.7;27.67969;935.1223;;;;
2020/04/12 15:16:43;;;;;;;5.3;2.7;;;;;;;22.69;28.54785;935.1786;;;;
2020/04/12 15:19:08;;;;;;;6.7;2.9;;;;;;;22.72;27.44629;935.1418;;;;
2020/04/12 15:21:34;;;;;;;4.2;2.7;;;;;;;22.8;27.2627;935.1124;;;;
2020/04/12 15:23:59;;;;;;;3.4;2.7;;;;;;;22.88;27.73828;935.1206;;;;
2020/04/12 15:26:24;;;;;;;5.6;2.8;;;;;;;22.97;27.53223;935.1032;;;;
2020/04/12 15:28:49;;;;;;;4.3;2.6;;;;;;;23.06;27.39746;935.058;;;;
2020/04/12 15:31:14;;;;;;;3.1;2.7;;;;;;;23.05;26.70313;935.0756;;;;